sensor_id;sensor_type;location;lat;lon;timestamp;P1;durP1;ratioP1;P2;durP2;ratioP2
21564;SDS011;10943;48.738;9.320;2022-07-06T00:00:11;4.28;;;1.60;;
21564;SDS011;10943;48.738;9.320;2022-07-06T00:02:39;3.33;;;1.40;;
21564;SDS011;10943;48.738;9.320;2022-07-06T00:05:07;4.55;;;2.20;;
21564;SDS011;10943;48.738;9.320;2022-07-06T00:07:35;3.10;;;1.50;;
21564;SDS011;10943;48.738;9.320;2022-07-06T00:10:03;7.10;;;1.80;;
21564;SDS011;10943;48.738;9.320;2022-07-06T00:12:33;5.40;;;1.73;;
21564;SDS011;10943;48.738;9.320;2022-07-06T00:15:05;6.07;;;1.42;;
21564;SDS011;10943;48.738;9.320;2022-07-06T00:17:33;4.95;;;1.42;;
21564;SDS011;10943;48.738;9.320;2022-07-06T00:20:00;3.42;;;1.55;;
21564;SDS011;10943;48.738;9.320;2022-07-06T00:22:28;3.47;;;1.48;;
21564;SDS011;10943;48.738;9.320;2022-07-06T00:25:04;4.97;;;1.50;;
21564;SDS011;10943;48.738;9.320;2022-07-06T00:27:33;3.90;;;1.60;;
21564;SDS011;10943;48.738;9.320;2022-07-06T00:30:00;5.85;;;1.73;;
21564;SDS011;10943;48.738;9.320;2022-07-06T00:32:27;9.50;;;2.08;;
21564;SDS011;10943;48.738;9.320;2022-07-06T00:34:57;5.68;;;1.80;;
21564;SDS011;10943;48.738;9.320;2022-07-06T00:37:26;5.68;;;1.80;;
21564;SDS011;10943;48.738;9.320;2022-07-06T00:39:54;3.70;;;1.50;;
21564;SDS011;10943;48.738;9.320;2022-07-06T00:42:21;3.90;;;1.63;;
21564;SDS011;10943;48.738;9.320;2022-07-06T00:44:49;3.80;;;1.30;;
21564;SDS011;10943;48.738;9.320;2022-07-06T00:47:16;6.25;;;1.60;;
21564;SDS011;10943;48.738;9.320;2022-07-06T00:49:44;4.30;;;1.83;;
21564;SDS011;10943;48.738;9.320;2022-07-06T00:52:30;5.00;;;1.70;;
21564;SDS011;10943;48.738;9.320;2022-07-06T00:55:01;4.65;;;1.55;;
21564;SDS011;10943;48.738;9.320;2022-07-06T00:57:30;4.60;;;1.52;;
21564;SDS011;10943;48.738;9.320;2022-07-06T00:59:59;7.28;;;1.73;;
21564;SDS011;10943;48.738;9.320;2022-07-06T01:02:31;3.75;;;1.50;;
21564;SDS011;10943;48.738;9.320;2022-07-06T01:05:04;6.75;;;2.10;;
21564;SDS011;10943;48.738;9.320;2022-07-06T01:07:36;3.92;;;1.83;;
21564;SDS011;10943;48.738;9.320;2022-07-06T01:10:08;5.38;;;2.05;;
21564;SDS011;10943;48.738;9.320;2022-07-06T01:12:39;4.78;;;1.90;;
21564;SDS011;10943;48.738;9.320;2022-07-06T01:15:12;6.10;;;1.90;;
21564;SDS011;10943;48.738;9.320;2022-07-06T01:17:51;5.15;;;1.90;;
21564;SDS011;10943;48.738;9.320;2022-07-06T01:20:25;6.35;;;1.90;;
21564;SDS011;10943;48.738;9.320;2022-07-06T01:22:54;7.07;;;2.03;;
21564;SDS011;10943;48.738;9.320;2022-07-06T01:25:23;6.55;;;2.00;;
21564;SDS011;10943;48.738;9.320;2022-07-06T01:27:50;5.88;;;1.90;;
21564;SDS011;10943;48.738;9.320;2022-07-06T01:30:18;6.50;;;2.03;;
21564;SDS011;10943;48.738;9.320;2022-07-06T01:32:46;5.18;;;1.90;;
21564;SDS011;10943;48.738;9.320;2022-07-06T01:35:15;5.18;;;2.00;;
21564;SDS011;10943;48.738;9.320;2022-07-06T01:37:44;4.22;;;2.03;;
21564;SDS011;10943;48.738;9.320;2022-07-06T01:40:13;5.05;;;2.13;;
21564;SDS011;10943;48.738;9.320;2022-07-06T01:42:40;5.70;;;2.38;;
21564;SDS011;10943;48.738;9.320;2022-07-06T01:45:09;6.45;;;2.70;;
21564;SDS011;10943;48.738;9.320;2022-07-06T01:47:37;5.75;;;2.38;;
21564;SDS011;10943;48.738;9.320;2022-07-06T01:50:07;4.20;;;2.05;;
21564;SDS011;10943;48.738;9.320;2022-07-06T01:52:40;4.82;;;2.08;;
21564;SDS011;10943;48.738;9.320;2022-07-06T01:55:08;5.65;;;2.40;;
21564;SDS011;10943;48.738;9.320;2022-07-06T01:57:39;6.35;;;2.60;;
21564;SDS011;10943;48.738;9.320;2022-07-06T02:00:10;6.85;;;2.53;;
21564;SDS011;10943;48.738;9.320;2022-07-06T02:02:40;7.55;;;2.50;;
21564;SDS011;10943;48.738;9.320;2022-07-06T02:05:12;6.15;;;2.40;;
21564;SDS011;10943;48.738;9.320;2022-07-06T02:07:40;5.35;;;2.40;;
21564;SDS011;10943;48.738;9.320;2022-07-06T02:10:09;4.95;;;2.40;;
21564;SDS011;10943;48.738;9.320;2022-07-06T02:12:39;4.43;;;2.30;;
21564;SDS011;10943;48.738;9.320;2022-07-06T02:15:07;5.45;;;2.33;;
21564;SDS011;10943;48.738;9.320;2022-07-06T02:17:35;7.80;;;2.50;;
21564;SDS011;10943;48.738;9.320;2022-07-06T02:20:03;5.25;;;2.17;;
21564;SDS011;10943;48.738;9.320;2022-07-06T02:22:36;7.10;;;2.40;;
21564;SDS011;10943;48.738;9.320;2022-07-06T02:25:04;6.28;;;2.50;;
21564;SDS011;10943;48.738;9.320;2022-07-06T02:27:33;5.72;;;2.20;;
21564;SDS011;10943;48.738;9.320;2022-07-06T02:30:04;5.68;;;2.55;;
21564;SDS011;10943;48.738;9.320;2022-07-06T02:32:34;6.35;;;2.70;;
21564;SDS011;10943;48.738;9.320;2022-07-06T02:35:02;4.50;;;2.50;;
21564;SDS011;10943;48.738;9.320;2022-07-06T02:37:31;6.85;;;2.53;;
21564;SDS011;10943;48.738;9.320;2022-07-06T02:39:59;5.25;;;2.60;;
21564;SDS011;10943;48.738;9.320;2022-07-06T02:42:30;6.57;;;2.58;;
21564;SDS011;10943;48.738;9.320;2022-07-06T02:44:58;6.75;;;2.70;;
21564;SDS011;10943;48.738;9.320;2022-07-06T02:47:27;6.10;;;2.50;;
21564;SDS011;10943;48.738;9.320;2022-07-06T02:49:55;5.53;;;2.53;;
21564;SDS011;10943;48.738;9.320;2022-07-06T02:52:23;5.70;;;2.88;;
21564;SDS011;10943;48.738;9.320;2022-07-06T02:54:51;5.78;;;2.70;;
21564;SDS011;10943;48.738;9.320;2022-07-06T02:57:20;6.28;;;2.40;;
21564;SDS011;10943;48.738;9.320;2022-07-06T03:02:37;5.80;;;2.58;;
21564;SDS011;10943;48.738;9.320;2022-07-06T03:05:06;5.43;;;2.38;;
21564;SDS011;10943;48.738;9.320;2022-07-06T03:07:34;6.68;;;2.50;;
21564;SDS011;10943;48.738;9.320;2022-07-06T03:10:02;6.68;;;2.90;;
21564;SDS011;10943;48.738;9.320;2022-07-06T03:12:32;4.57;;;2.50;;
21564;SDS011;10943;48.738;9.320;2022-07-06T03:15:00;7.18;;;2.83;;
21564;SDS011;10943;48.738;9.320;2022-07-06T03:17:29;5.53;;;2.42;;
21564;SDS011;10943;48.738;9.320;2022-07-06T03:19:57;5.45;;;3.10;;
21564;SDS011;10943;48.738;9.320;2022-07-06T03:22:26;4.38;;;2.80;;
21564;SDS011;10943;48.738;9.320;2022-07-06T03:25:19;6.45;;;2.80;;
21564;SDS011;10943;48.738;9.320;2022-07-06T03:27:47;7.13;;;2.67;;
21564;SDS011;10943;48.738;9.320;2022-07-06T03:30:17;4.65;;;2.50;;
21564;SDS011;10943;48.738;9.320;2022-07-06T03:32:50;4.70;;;2.70;;
21564;SDS011;10943;48.738;9.320;2022-07-06T03:35:19;5.57;;;2.58;;
21564;SDS011;10943;48.738;9.320;2022-07-06T03:37:50;5.65;;;2.80;;
21564;SDS011;10943;48.738;9.320;2022-07-06T03:40:20;6.28;;;3.00;;
21564;SDS011;10943;48.738;9.320;2022-07-06T03:42:50;5.07;;;2.65;;
21564;SDS011;10943;48.738;9.320;2022-07-06T03:45:20;5.70;;;2.90;;
21564;SDS011;10943;48.738;9.320;2022-07-06T03:47:48;6.75;;;2.67;;
21564;SDS011;10943;48.738;9.320;2022-07-06T03:50:15;5.05;;;2.75;;
21564;SDS011;10943;48.738;9.320;2022-07-06T03:52:43;4.45;;;2.60;;
21564;SDS011;10943;48.738;9.320;2022-07-06T03:55:11;5.88;;;2.80;;
21564;SDS011;10943;48.738;9.320;2022-07-06T03:57:44;5.70;;;2.70;;
21564;SDS011;10943;48.738;9.320;2022-07-06T04:00:15;6.25;;;2.88;;
21564;SDS011;10943;48.738;9.320;2022-07-06T04:02:49;5.63;;;3.08;;
21564;SDS011;10943;48.738;9.320;2022-07-06T04:05:21;5.07;;;3.17;;
21564;SDS011;10943;48.738;9.320;2022-07-06T04:07:52;6.70;;;3.08;;
21564;SDS011;10943;48.738;9.320;2022-07-06T04:10:25;8.73;;;3.17;;
21564;SDS011;10943;48.738;9.320;2022-07-06T04:12:55;6.68;;;2.45;;
21564;SDS011;10943;48.738;9.320;2022-07-06T04:15:23;5.50;;;2.90;;
21564;SDS011;10943;48.738;9.320;2022-07-06T04:17:51;6.82;;;2.58;;
21564;SDS011;10943;48.738;9.320;2022-07-06T04:20:23;4.90;;;2.80;;
21564;SDS011;10943;48.738;9.320;2022-07-06T04:22:53;7.20;;;3.10;;
21564;SDS011;10943;48.738;9.320;2022-07-06T04:25:24;5.45;;;2.70;;
21564;SDS011;10943;48.738;9.320;2022-07-06T04:27:56;5.97;;;2.80;;
21564;SDS011;10943;48.738;9.320;2022-07-06T04:30:27;5.45;;;2.60;;
21564;SDS011;10943;48.738;9.320;2022-07-06T04:32:54;5.28;;;2.70;;
21564;SDS011;10943;48.738;9.320;2022-07-06T04:35:24;5.18;;;2.90;;
21564;SDS011;10943;48.738;9.320;2022-07-06T04:37:53;6.07;;;2.70;;
21564;SDS011;10943;48.738;9.320;2022-07-06T04:40:21;8.93;;;2.92;;
21564;SDS011;10943;48.738;9.320;2022-07-06T04:42:54;6.28;;;2.47;;
21564;SDS011;10943;48.738;9.320;2022-07-06T04:45:23;8.57;;;2.80;;
21564;SDS011;10943;48.738;9.320;2022-07-06T04:47:54;4.82;;;2.30;;
21564;SDS011;10943;48.738;9.320;2022-07-06T04:50:24;7.35;;;2.30;;
21564;SDS011;10943;48.738;9.320;2022-07-06T04:52:57;5.93;;;2.30;;
21564;SDS011;10943;48.738;9.320;2022-07-06T04:55:27;4.15;;;2.00;;
21564;SDS011;10943;48.738;9.320;2022-07-06T04:57:55;4.32;;;2.00;;
21564;SDS011;10943;48.738;9.320;2022-07-06T05:00:24;4.75;;;2.05;;
21564;SDS011;10943;48.738;9.320;2022-07-06T05:02:52;4.65;;;2.03;;
21564;SDS011;10943;48.738;9.320;2022-07-06T05:05:25;6.82;;;2.20;;
21564;SDS011;10943;48.738;9.320;2022-07-06T05:07:55;7.32;;;2.25;;
21564;SDS011;10943;48.738;9.320;2022-07-06T05:10:23;4.28;;;1.70;;
21564;SDS011;10943;48.738;9.320;2022-07-06T05:12:54;8.57;;;2.25;;
21564;SDS011;10943;48.738;9.320;2022-07-06T05:15:24;7.20;;;1.98;;
21564;SDS011;10943;48.738;9.320;2022-07-06T05:17:52;5.00;;;1.90;;
21564;SDS011;10943;48.738;9.320;2022-07-06T05:20:21;6.72;;;1.70;;
21564;SDS011;10943;48.738;9.320;2022-07-06T05:22:49;6.93;;;2.00;;
21564;SDS011;10943;48.738;9.320;2022-07-06T05:25:23;6.97;;;2.03;;
21564;SDS011;10943;48.738;9.320;2022-07-06T05:27:51;4.38;;;2.00;;
21564;SDS011;10943;48.738;9.320;2022-07-06T05:30:20;7.22;;;1.90;;
21564;SDS011;10943;48.738;9.320;2022-07-06T05:32:48;6.45;;;1.85;;
21564;SDS011;10943;48.738;9.320;2022-07-06T05:35:15;5.35;;;1.60;;
21564;SDS011;10943;48.738;9.320;2022-07-06T05:38:05;4.68;;;1.60;;
21564;SDS011;10943;48.738;9.320;2022-07-06T05:40:35;5.93;;;1.58;;
21564;SDS011;10943;48.738;9.320;2022-07-06T05:43:03;4.75;;;1.70;;
21564;SDS011;10943;48.738;9.320;2022-07-06T05:45:31;5.53;;;1.60;;
21564;SDS011;10943;48.738;9.320;2022-07-06T05:47:58;6.40;;;1.77;;
21564;SDS011;10943;48.738;9.320;2022-07-06T05:50:45;5.15;;;1.58;;
21564;SDS011;10943;48.738;9.320;2022-07-06T05:53:15;7.05;;;1.40;;
21564;SDS011;10943;48.738;9.320;2022-07-06T05:55:52;5.25;;;1.75;;
21564;SDS011;10943;48.738;9.320;2022-07-06T05:58:22;9.20;;;1.58;;
21564;SDS011;10943;48.738;9.320;2022-07-06T06:00:55;5.55;;;1.55;;
21564;SDS011;10943;48.738;9.320;2022-07-06T06:03:23;5.63;;;1.77;;
21564;SDS011;10943;48.738;9.320;2022-07-06T06:05:53;4.93;;;1.70;;
21564;SDS011;10943;48.738;9.320;2022-07-06T06:08:23;4.55;;;1.60;;
21564;SDS011;10943;48.738;9.320;2022-07-06T06:10:52;6.40;;;1.90;;
21564;SDS011;10943;48.738;9.320;2022-07-06T06:13:22;4.55;;;1.42;;
21564;SDS011;10943;48.738;9.320;2022-07-06T06:15:50;5.25;;;1.65;;
21564;SDS011;10943;48.738;9.320;2022-07-06T06:18:18;3.22;;;1.30;;
21564;SDS011;10943;48.738;9.320;2022-07-06T06:20:47;4.20;;;1.35;;
21564;SDS011;10943;48.738;9.320;2022-07-06T06:23:15;4.30;;;1.73;;
21564;SDS011;10943;48.738;9.320;2022-07-06T06:25:45;4.47;;;1.58;;
21564;SDS011;10943;48.738;9.320;2022-07-06T06:31:09;6.25;;;1.58;;
21564;SDS011;10943;48.738;9.320;2022-07-06T06:33:36;4.47;;;1.38;;
21564;SDS011;10943;48.738;9.320;2022-07-06T06:36:04;4.85;;;1.50;;
21564;SDS011;10943;48.738;9.320;2022-07-06T06:38:35;3.97;;;1.60;;
21564;SDS011;10943;48.738;9.320;2022-07-06T06:41:03;5.50;;;1.55;;
21564;SDS011;10943;48.738;9.320;2022-07-06T06:43:31;8.23;;;1.50;;
21564;SDS011;10943;48.738;9.320;2022-07-06T06:46:07;6.28;;;1.73;;
21564;SDS011;10943;48.738;9.320;2022-07-06T06:48:35;5.00;;;1.40;;
21564;SDS011;10943;48.738;9.320;2022-07-06T06:51:03;5.30;;;1.70;;
21564;SDS011;10943;48.738;9.320;2022-07-06T06:53:31;5.43;;;1.63;;
21564;SDS011;10943;48.738;9.320;2022-07-06T06:56:05;4.90;;;1.60;;
21564;SDS011;10943;48.738;9.320;2022-07-06T06:58:35;5.13;;;1.63;;
21564;SDS011;10943;48.738;9.320;2022-07-06T07:01:23;5.85;;;1.77;;
21564;SDS011;10943;48.738;9.320;2022-07-06T07:03:52;6.38;;;1.70;;
21564;SDS011;10943;48.738;9.320;2022-07-06T07:06:22;7.40;;;1.80;;
21564;SDS011;10943;48.738;9.320;2022-07-06T07:08:50;5.72;;;1.77;;
21564;SDS011;10943;48.738;9.320;2022-07-06T07:11:18;5.80;;;1.98;;
21564;SDS011;10943;48.738;9.320;2022-07-06T07:13:46;4.72;;;1.77;;
21564;SDS011;10943;48.738;9.320;2022-07-06T07:16:14;6.10;;;1.60;;
21564;SDS011;10943;48.738;9.320;2022-07-06T07:18:42;6.65;;;1.77;;
21564;SDS011;10943;48.738;9.320;2022-07-06T07:21:10;6.90;;;1.55;;
21564;SDS011;10943;48.738;9.320;2022-07-06T07:23:37;6.45;;;1.77;;
21564;SDS011;10943;48.738;9.320;2022-07-06T07:26:06;6.65;;;1.83;;
21564;SDS011;10943;48.738;9.320;2022-07-06T07:28:40;7.00;;;1.80;;
21564;SDS011;10943;48.738;9.320;2022-07-06T07:31:10;4.15;;;1.50;;
21564;SDS011;10943;48.738;9.320;2022-07-06T07:33:38;4.47;;;1.40;;
21564;SDS011;10943;48.738;9.320;2022-07-06T07:36:06;4.22;;;1.60;;
21564;SDS011;10943;48.738;9.320;2022-07-06T07:38:34;5.63;;;2.20;;
21564;SDS011;10943;48.738;9.320;2022-07-06T07:41:02;10.27;;;1.80;;
21564;SDS011;10943;48.738;9.320;2022-07-06T07:43:30;5.47;;;1.60;;
21564;SDS011;10943;48.738;9.320;2022-07-06T07:45:57;5.88;;;1.65;;
21564;SDS011;10943;48.738;9.320;2022-07-06T07:48:25;4.78;;;1.83;;
21564;SDS011;10943;48.738;9.320;2022-07-06T07:50:53;7.75;;;1.80;;
21564;SDS011;10943;48.738;9.320;2022-07-06T07:53:23;6.47;;;1.67;;
21564;SDS011;10943;48.738;9.320;2022-07-06T07:55:51;5.60;;;1.70;;
21564;SDS011;10943;48.738;9.320;2022-07-06T07:58:20;5.35;;;1.85;;
21564;SDS011;10943;48.738;9.320;2022-07-06T08:00:47;4.47;;;1.52;;
21564;SDS011;10943;48.738;9.320;2022-07-06T08:03:16;8.30;;;1.52;;
21564;SDS011;10943;48.738;9.320;2022-07-06T08:06:09;6.05;;;1.83;;
21564;SDS011;10943;48.738;9.320;2022-07-06T08:08:37;5.30;;;1.80;;
21564;SDS011;10943;48.738;9.320;2022-07-06T08:11:04;5.35;;;1.80;;
21564;SDS011;10943;48.738;9.320;2022-07-06T08:13:44;4.93;;;1.27;;
21564;SDS011;10943;48.738;9.320;2022-07-06T08:16:12;5.55;;;1.60;;
21564;SDS011;10943;48.738;9.320;2022-07-06T08:18:40;5.13;;;1.77;;
21564;SDS011;10943;48.738;9.320;2022-07-06T08:21:08;7.00;;;1.70;;
21564;SDS011;10943;48.738;9.320;2022-07-06T08:23:54;4.68;;;1.35;;
21564;SDS011;10943;48.738;9.320;2022-07-06T08:26:23;4.30;;;1.50;;
21564;SDS011;10943;48.738;9.320;2022-07-06T08:28:51;4.65;;;1.70;;
21564;SDS011;10943;48.738;9.320;2022-07-06T08:31:21;4.72;;;1.67;;
21564;SDS011;10943;48.738;9.320;2022-07-06T08:37:09;5.82;;;1.60;;
21564;SDS011;10943;48.738;9.320;2022-07-06T08:39:37;6.72;;;1.88;;
21564;SDS011;10943;48.738;9.320;2022-07-06T08:42:04;6.70;;;1.60;;
21564;SDS011;10943;48.738;9.320;2022-07-06T08:44:35;8.57;;;1.75;;
21564;SDS011;10943;48.738;9.320;2022-07-06T08:47:05;3.13;;;1.20;;
21564;SDS011;10943;48.738;9.320;2022-07-06T08:49:38;5.85;;;1.33;;
21564;SDS011;10943;48.738;9.320;2022-07-06T08:52:12;4.63;;;1.55;;
21564;SDS011;10943;48.738;9.320;2022-07-06T08:54:40;5.20;;;1.73;;
21564;SDS011;10943;48.738;9.320;2022-07-06T08:57:08;5.68;;;1.80;;
21564;SDS011;10943;48.738;9.320;2022-07-06T08:59:45;7.00;;;1.70;;
21564;SDS011;10943;48.738;9.320;2022-07-06T09:02:13;6.50;;;1.90;;
21564;SDS011;10943;48.738;9.320;2022-07-06T09:04:42;6.35;;;1.98;;
21564;SDS011;10943;48.738;9.320;2022-07-06T09:07:16;6.75;;;1.50;;
21564;SDS011;10943;48.738;9.320;2022-07-06T09:10:06;4.38;;;1.58;;
21564;SDS011;10943;48.738;9.320;2022-07-06T09:12:35;5.80;;;1.80;;
21564;SDS011;10943;48.738;9.320;2022-07-06T09:15:03;4.53;;;1.60;;
21564;SDS011;10943;48.738;9.320;2022-07-06T09:17:32;6.50;;;1.80;;
21564;SDS011;10943;48.738;9.320;2022-07-06T09:20:09;5.38;;;1.95;;
21564;SDS011;10943;48.738;9.320;2022-07-06T09:22:42;8.25;;;1.52;;
21564;SDS011;10943;48.738;9.320;2022-07-06T09:25:15;5.78;;;1.70;;
21564;SDS011;10943;48.738;9.320;2022-07-06T09:27:48;5.03;;;1.60;;
21564;SDS011;10943;48.738;9.320;2022-07-06T09:30:21;3.75;;;1.45;;
21564;SDS011;10943;48.738;9.320;2022-07-06T09:32:51;8.23;;;1.75;;
21564;SDS011;10943;48.738;9.320;2022-07-06T09:35:31;5.95;;;1.92;;
21564;SDS011;10943;48.738;9.320;2022-07-06T09:38:13;3.80;;;1.63;;
21564;SDS011;10943;48.738;9.320;2022-07-06T09:40:42;8.23;;;1.80;;
21564;SDS011;10943;48.738;9.320;2022-07-06T09:43:16;3.30;;;1.50;;
21564;SDS011;10943;48.738;9.320;2022-07-06T09:45:55;6.32;;;1.65;;
21564;SDS011;10943;48.738;9.320;2022-07-06T09:48:25;5.28;;;1.80;;
21564;SDS011;10943;48.738;9.320;2022-07-06T09:51:00;4.63;;;1.70;;
21564;SDS011;10943;48.738;9.320;2022-07-06T09:53:29;60.47;;;4.95;;
21564;SDS011;10943;48.738;9.320;2022-07-06T09:55:56;5.10;;;1.70;;
21564;SDS011;10943;48.738;9.320;2022-07-06T09:58:28;5.47;;;1.90;;
21564;SDS011;10943;48.738;9.320;2022-07-06T10:01:25;6.20;;;1.80;;
21564;SDS011;10943;48.738;9.320;2022-07-06T10:06:48;6.93;;;1.90;;
21564;SDS011;10943;48.738;9.320;2022-07-06T10:09:18;5.70;;;1.73;;
21564;SDS011;10943;48.738;9.320;2022-07-06T10:11:50;5.75;;;1.40;;
21564;SDS011;10943;48.738;9.320;2022-07-06T10:14:26;5.93;;;1.80;;
21564;SDS011;10943;48.738;9.320;2022-07-06T10:16:58;4.47;;;1.50;;
21564;SDS011;10943;48.738;9.320;2022-07-06T10:19:31;5.35;;;1.80;;
21564;SDS011;10943;48.738;9.320;2022-07-06T10:22:02;5.85;;;1.80;;
21564;SDS011;10943;48.738;9.320;2022-07-06T10:24:30;8.00;;;1.80;;
21564;SDS011;10943;48.738;9.320;2022-07-06T10:27:01;5.82;;;1.60;;
21564;SDS011;10943;48.738;9.320;2022-07-06T10:29:30;6.00;;;1.83;;
21564;SDS011;10943;48.738;9.320;2022-07-06T10:32:01;6.78;;;1.75;;
21564;SDS011;10943;48.738;9.320;2022-07-06T10:34:31;6.15;;;2.00;;
21564;SDS011;10943;48.738;9.320;2022-07-06T10:37:01;6.82;;;1.88;;
21564;SDS011;10943;48.738;9.320;2022-07-06T10:39:36;5.13;;;1.60;;
21564;SDS011;10943;48.738;9.320;2022-07-06T10:48:22;5.38;;;1.58;;
21564;SDS011;10943;48.738;9.320;2022-07-06T10:50:58;7.90;;;1.70;;
21564;SDS011;10943;48.738;9.320;2022-07-06T10:53:30;7.05;;;1.70;;
21564;SDS011;10943;48.738;9.320;2022-07-06T10:56:03;5.25;;;1.60;;
21564;SDS011;10943;48.738;9.320;2022-07-06T10:58:49;4.22;;;1.52;;
21564;SDS011;10943;48.738;9.320;2022-07-06T11:01:21;6.78;;;1.65;;
21564;SDS011;10943;48.738;9.320;2022-07-06T11:06:23;5.22;;;1.60;;
21564;SDS011;10943;48.738;9.320;2022-07-06T11:08:53;5.40;;;1.70;;
21564;SDS011;10943;48.738;9.320;2022-07-06T11:14:01;6.10;;;1.75;;
21564;SDS011;10943;48.738;9.320;2022-07-06T11:19:19;6.80;;;2.10;;
21564;SDS011;10943;48.738;9.320;2022-07-06T11:21:50;6.45;;;1.70;;
21564;SDS011;10943;48.738;9.320;2022-07-06T11:24:27;10.27;;;2.17;;
21564;SDS011;10943;48.738;9.320;2022-07-06T11:26:58;5.78;;;1.70;;
21564;SDS011;10943;48.738;9.320;2022-07-06T11:29:30;6.43;;;1.67;;
21564;SDS011;10943;48.738;9.320;2022-07-06T11:32:02;6.10;;;2.00;;
21564;SDS011;10943;48.738;9.320;2022-07-06T11:34:33;7.22;;;1.75;;
21564;SDS011;10943;48.738;9.320;2022-07-06T11:37:07;6.30;;;1.50;;
21564;SDS011;10943;48.738;9.320;2022-07-06T11:39:39;6.10;;;1.67;;
21564;SDS011;10943;48.738;9.320;2022-07-06T11:42:10;8.10;;;1.90;;
21564;SDS011;10943;48.738;9.320;2022-07-06T11:44:41;4.43;;;1.55;;
21564;SDS011;10943;48.738;9.320;2022-07-06T11:47:12;6.65;;;1.77;;
21564;SDS011;10943;48.738;9.320;2022-07-06T11:49:52;8.90;;;1.77;;
21564;SDS011;10943;48.738;9.320;2022-07-06T11:52:21;7.53;;;1.85;;
21564;SDS011;10943;48.738;9.320;2022-07-06T11:54:57;5.80;;;1.77;;
21564;SDS011;10943;48.738;9.320;2022-07-06T11:57:29;5.05;;;1.83;;
21564;SDS011;10943;48.738;9.320;2022-07-06T11:59:59;4.47;;;1.60;;
21564;SDS011;10943;48.738;9.320;2022-07-06T12:02:26;4.40;;;1.70;;
21564;SDS011;10943;48.738;9.320;2022-07-06T12:04:53;4.50;;;1.52;;
21564;SDS011;10943;48.738;9.320;2022-07-06T12:07:21;7.63;;;1.90;;
21564;SDS011;10943;48.738;9.320;2022-07-06T12:09:48;5.20;;;1.50;;
21564;SDS011;10943;48.738;9.320;2022-07-06T12:12:16;6.35;;;1.70;;
21564;SDS011;10943;48.738;9.320;2022-07-06T12:14:45;7.13;;;2.10;;
21564;SDS011;10943;48.738;9.320;2022-07-06T12:17:13;6.53;;;1.95;;
21564;SDS011;10943;48.738;9.320;2022-07-06T12:19:43;6.57;;;1.77;;
21564;SDS011;10943;48.738;9.320;2022-07-06T12:22:10;4.60;;;1.60;;
21564;SDS011;10943;48.738;9.320;2022-07-06T12:24:42;6.00;;;1.90;;
21564;SDS011;10943;48.738;9.320;2022-07-06T12:27:14;7.25;;;1.75;;
21564;SDS011;10943;48.738;9.320;2022-07-06T12:29:47;7.00;;;1.85;;
21564;SDS011;10943;48.738;9.320;2022-07-06T12:32:17;9.82;;;1.77;;
21564;SDS011;10943;48.738;9.320;2022-07-06T12:35:06;7.03;;;2.00;;
21564;SDS011;10943;48.738;9.320;2022-07-06T12:37:36;5.75;;;1.90;;
21564;SDS011;10943;48.738;9.320;2022-07-06T12:40:13;7.07;;;1.95;;
21564;SDS011;10943;48.738;9.320;2022-07-06T12:42:47;5.60;;;1.75;;
21564;SDS011;10943;48.738;9.320;2022-07-06T12:45:16;7.20;;;1.80;;
21564;SDS011;10943;48.738;9.320;2022-07-06T12:48:00;7.07;;;1.67;;
21564;SDS011;10943;48.738;9.320;2022-07-06T12:50:38;6.95;;;1.88;;
21564;SDS011;10943;48.738;9.320;2022-07-06T12:53:26;7.35;;;1.92;;
21564;SDS011;10943;48.738;9.320;2022-07-06T12:56:14;7.65;;;2.00;;
21564;SDS011;10943;48.738;9.320;2022-07-06T12:58:56;5.63;;;1.70;;
21564;SDS011;10943;48.738;9.320;2022-07-06T13:01:27;5.85;;;1.92;;
21564;SDS011;10943;48.738;9.320;2022-07-06T13:03:55;7.07;;;2.00;;
21564;SDS011;10943;48.738;9.320;2022-07-06T13:06:31;6.15;;;1.83;;
21564;SDS011;10943;48.738;9.320;2022-07-06T13:09:01;10.27;;;1.90;;
21564;SDS011;10943;48.738;9.320;2022-07-06T13:11:28;6.68;;;1.80;;
21564;SDS011;10943;48.738;9.320;2022-07-06T13:13:57;4.25;;;1.80;;
21564;SDS011;10943;48.738;9.320;2022-07-06T13:16:25;6.93;;;2.17;;
21564;SDS011;10943;48.738;9.320;2022-07-06T13:19:00;8.30;;;2.10;;
21564;SDS011;10943;48.738;9.320;2022-07-06T13:21:29;8.07;;;1.83;;
21564;SDS011;10943;48.738;9.320;2022-07-06T13:23:56;7.93;;;2.00;;
21564;SDS011;10943;48.738;9.320;2022-07-06T13:26:25;6.50;;;2.00;;
21564;SDS011;10943;48.738;9.320;2022-07-06T13:28:54;8.77;;;2.20;;
21564;SDS011;10943;48.738;9.320;2022-07-06T13:31:22;5.60;;;1.70;;
21564;SDS011;10943;48.738;9.320;2022-07-06T13:33:50;7.50;;;1.75;;
21564;SDS011;10943;48.738;9.320;2022-07-06T13:36:18;6.88;;;2.10;;
21564;SDS011;10943;48.738;9.320;2022-07-06T13:38:46;6.30;;;1.98;;
21564;SDS011;10943;48.738;9.320;2022-07-06T13:41:14;9.00;;;1.90;;
21564;SDS011;10943;48.738;9.320;2022-07-06T13:43:42;4.57;;;1.60;;
21564;SDS011;10943;48.738;9.320;2022-07-06T13:46:11;6.32;;;1.63;;
21564;SDS011;10943;48.738;9.320;2022-07-06T13:48:41;6.88;;;1.80;;
21564;SDS011;10943;48.738;9.320;2022-07-06T13:51:09;7.97;;;1.85;;
21564;SDS011;10943;48.738;9.320;2022-07-06T13:53:36;6.75;;;1.60;;
21564;SDS011;10943;48.738;9.320;2022-07-06T13:56:05;6.70;;;1.85;;
21564;SDS011;10943;48.738;9.320;2022-07-06T13:58:35;7.82;;;1.85;;
21564;SDS011;10943;48.738;9.320;2022-07-06T14:01:04;4.28;;;1.70;;
21564;SDS011;10943;48.738;9.320;2022-07-06T14:03:32;8.85;;;1.63;;
21564;SDS011;10943;48.738;9.320;2022-07-06T14:06:01;7.38;;;1.85;;
21564;SDS011;10943;48.738;9.320;2022-07-06T14:08:32;7.13;;;1.80;;
21564;SDS011;10943;48.738;9.320;2022-07-06T14:11:01;8.65;;;1.65;;
21564;SDS011;10943;48.738;9.320;2022-07-06T14:13:30;13.93;;;2.10;;
21564;SDS011;10943;48.738;9.320;2022-07-06T14:15:58;8.52;;;1.80;;
21564;SDS011;10943;48.738;9.320;2022-07-06T14:18:26;5.45;;;1.65;;
21564;SDS011;10943;48.738;9.320;2022-07-06T14:20:54;6.28;;;1.83;;
21564;SDS011;10943;48.738;9.320;2022-07-06T14:23:23;6.72;;;1.70;;
21564;SDS011;10943;48.738;9.320;2022-07-06T14:25:53;8.45;;;2.28;;
21564;SDS011;10943;48.738;9.320;2022-07-06T14:28:22;5.80;;;1.80;;
21564;SDS011;10943;48.738;9.320;2022-07-06T14:30:50;8.05;;;2.17;;
21564;SDS011;10943;48.738;9.320;2022-07-06T14:33:21;5.72;;;2.05;;
21564;SDS011;10943;48.738;9.320;2022-07-06T14:36:16;4.70;;;1.50;;
21564;SDS011;10943;48.738;9.320;2022-07-06T14:38:44;4.65;;;1.48;;
21564;SDS011;10943;48.738;9.320;2022-07-06T14:41:12;6.43;;;1.80;;
21564;SDS011;10943;48.738;9.320;2022-07-06T14:43:40;5.22;;;1.42;;
21564;SDS011;10943;48.738;9.320;2022-07-06T14:46:09;5.22;;;1.48;;
21564;SDS011;10943;48.738;9.320;2022-07-06T14:48:36;5.10;;;1.98;;
21564;SDS011;10943;48.738;9.320;2022-07-06T14:51:04;4.50;;;1.35;;
21564;SDS011;10943;48.738;9.320;2022-07-06T14:53:34;7.40;;;1.60;;
21564;SDS011;10943;48.738;9.320;2022-07-06T14:56:02;6.75;;;1.73;;
21564;SDS011;10943;48.738;9.320;2022-07-06T14:58:30;6.70;;;1.73;;
21564;SDS011;10943;48.738;9.320;2022-07-06T15:00:59;4.82;;;1.55;;
21564;SDS011;10943;48.738;9.320;2022-07-06T15:03:28;6.00;;;1.50;;
21564;SDS011;10943;48.738;9.320;2022-07-06T15:05:57;5.55;;;1.67;;
21564;SDS011;10943;48.738;9.320;2022-07-06T15:08:25;6.10;;;1.55;;
21564;SDS011;10943;48.738;9.320;2022-07-06T15:10:54;3.70;;;1.30;;
21564;SDS011;10943;48.738;9.320;2022-07-06T15:13:24;7.53;;;1.50;;
21564;SDS011;10943;48.738;9.320;2022-07-06T15:15:54;5.30;;;1.42;;
21564;SDS011;10943;48.738;9.320;2022-07-06T15:18:24;4.88;;;1.80;;
21564;SDS011;10943;48.738;9.320;2022-07-06T15:20:53;6.45;;;1.40;;
21564;SDS011;10943;48.738;9.320;2022-07-06T15:23:21;7.30;;;1.52;;
21564;SDS011;10943;48.738;9.320;2022-07-06T15:25:51;5.93;;;1.35;;
21564;SDS011;10943;48.738;9.320;2022-07-06T15:28:22;5.40;;;1.50;;
21564;SDS011;10943;48.738;9.320;2022-07-06T15:30:53;8.48;;;1.60;;
21564;SDS011;10943;48.738;9.320;2022-07-06T15:33:22;5.78;;;1.40;;